Time;durP1;ratioP1;P1;durP2;ratioP2;P2;SDS_P1;SDS_P2;PMS_P1;PMS_P2;Temp;Humidity;BMP_temperature;BMP_pressure;BME280_temperature;BME280_humidity;BME280_pressure;Samples;Min_cycle;Max_cycle;Signal;HPM_P1;HPM_P2
2022/08/20 02:22:08;;;;;;;;;;;15.00;52.40;;;;;;6152414;23;19945;-73
2022/08/20 02:24:35;;;;;;;;;;;15.00;52.20;;;;;;6127673;23;19936;-73
2022/08/20 02:27:01;;;;;;;;;;;15.00;52.00;;;;;;6149323;23;20047;-72
2022/08/20 02:29:28;;;;;;;;;;;15.10;51.60;;;;;;6150555;23;19905;-72
2022/08/20 02:31:55;;;;;;;;;;;15.10;51.80;;;;;;6148063;23;20454;-73
2022/08/20 02:34:21;;;;;;;;;;;15.10;52.40;;;;;;6150510;23;19916;-73
2022/08/20 02:36:48;;;;;;;;;;;15.00;52.50;;;;;;6125425;23;20244;-73
2022/08/20 02:39:15;;;;;;;;;;;15.10;52.30;;;;;;6124942;23;20300;-73
2022/08/20 02:41:41;;;;;;;;;;;15.10;52.40;;;;;;6151425;23;19909;-74
2022/08/20 02:44:08;;;;;;;;;;;15.10;52.80;;;;;;6150990;23;19963;-74
2022/08/20 02:46:35;;;;;;;;;;;15.10;52.70;;;;;;6151574;23;19967;-74
2022/08/20 02:49:01;;;;;;;;;;;15.10;52.70;;;;;;6125495;23;19931;-73
2022/08/20 02:51:28;;;;;;;;;;;15.10;53.00;;;;;;6151288;23;20232;-73
2022/08/20 02:53:54;;;;;;;;;;;15.10;52.70;;;;;;6150811;23;20003;-72
2022/08/20 02:56:21;;;;;;;;;;;15.10;53.00;;;;;;6150810;23;19909;-73
2022/08/20 02:58:48;;;;;;;;;;;15.00;53.30;;;;;;6150264;23;19915;-74
2022/08/20 03:01:15;;;;;;;;;;;15.00;53.60;;;;;;6149159;23;20295;-73
2022/08/20 03:03:41;;;;;;;;;;;15.00;53.80;;;;;;6149572;23;19928;-73
2022/08/20 03:06:08;;;;;;;;;;;15.00;54.00;;;;;;6149335;23;20315;-71
2022/08/20 03:08:35;;;;;;;;;;;15.00;53.70;;;;;;6149122;23;19909;-75
2022/08/20 03:11:02;;;;;;;;;;;15.10;53.80;;;;;;6123802;23;19909;-74
2022/08/20 03:13:28;;;;;;;;;;;15.10;54.10;;;;;;6151178;23;19904;-72
2022/08/20 03:15:57;;;;;;;;;;;15.10;54.50;;;;;;6151254;23;19912;-72
2022/08/20 03:18:24;;;;;;;;;;;15.10;54.80;;;;;;6151325;23;19913;-73
2022/08/20 03:20:50;;;;;;;;;;;15.10;55.00;;;;;;6151073;23;19971;-72
2022/08/20 03:23:18;;;;;;;;;;;15.10;54.80;;;;;;6152003;23;19904;-71
2022/08/20 03:25:45;;;;;;;;;;;15.10;54.40;;;;;;6151653;23;20268;-73
2022/08/20 03:28:12;;;;;;;;;;;15.10;55.00;;;;;;6152040;23;19954;-73
2022/08/20 03:30:38;;;;;;;;;;;15.20;54.60;;;;;;6151550;23;19955;-73
2022/08/20 03:33:05;;;;;;;;;;;15.20;54.40;;;;;;6148925;23;20351;-73
2022/08/20 03:35:32;;;;;;;;;;;15.20;54.80;;;;;;6150961;23;20340;-73
2022/08/20 03:37:59;;;;;;;;;;;15.20;54.90;;;;;;6151357;23;19912;-72
2022/08/20 03:40:29;;;;;;;;;;;15.30;54.20;;;;;;6150808;23;20559;-71
2022/08/20 03:42:57;;;;;;;;;;;15.20;54.50;;;;;;6148892;23;19915;-72
2022/08/20 03:45:24;;;;;;;;;;;15.20;54.10;;;;;;6148751;23;19984;-69
2022/08/20 03:47:51;;;;;;;;;;;15.30;54.90;;;;;;6151398;23;19916;-70
2022/08/20 03:50:18;;;;;;;;;;;15.20;53.10;;;;;;6125003;23;20291;-72
2022/08/20 03:52:44;;;;;;;;;;;15.20;54.30;;;;;;6151132;23;20232;-71
2022/08/20 03:55:11;;;;;;;;;;;15.20;54.50;;;;;;6150837;23;19958;-70
2022/08/20 03:57:43;;;;;;;;;;;15.30;54.70;;;;;;6150359;23;20431;-73
2022/08/20 04:00:11;;;;;;;;;;;15.20;53.70;;;;;;6151379;23;20024;-71
2022/08/20 04:02:39;;;;;;;;;;;15.20;53.60;;;;;;6151225;23;20455;-70
2022/08/20 04:05:06;;;;;;;;;;;15.20;53.70;;;;;;6151166;23;20336;-73
2022/08/20 04:07:32;;;;;;;;;;;15.30;53.90;;;;;;6151279;23;19908;-69
2022/08/20 04:09:59;;;;;;;;;;;15.30;54.20;;;;;;6151705;23;19905;-71
2022/08/20 04:12:26;;;;;;;;;;;15.40;53.20;;;;;;6151174;23;20280;-71
2022/08/20 04:14:52;;;;;;;;;;;15.40;53.20;;;;;;6150591;23;19913;-71
2022/08/20 04:17:19;;;;;;;;;;;15.40;53.50;;;;;;6150587;23;19917;-69
2022/08/20 04:19:46;;;;;;;;;;;15.40;54.50;;;;;;6150902;23;20336;-72
2022/08/20 04:22:13;;;;;;;;;;;15.40;54.50;;;;;;6151162;23;19995;-72
2022/08/20 04:24:40;;;;;;;;;;;15.40;54.90;;;;;;6150797;23;19987;-71
2022/08/20 04:27:07;;;;;;;;;;;15.40;55.10;;;;;;6149754;23;19984;-71
2022/08/20 04:29:34;;;;;;;;;;;15.40;55.10;;;;;;6150445;23;19915;-72
2022/08/20 04:32:01;;;;;;;;;;;15.50;55.10;;;;;;6122338;23;19911;-72
2022/08/20 04:34:28;;;;;;;;;;;15.50;55.30;;;;;;6150284;23;19987;-73
2022/08/20 04:36:55;;;;;;;;;;;15.50;56.10;;;;;;6152696;23;19919;-73
2022/08/20 04:39:22;;;;;;;;;;;15.50;56.30;;;;;;6126333;23;19984;-73
2022/08/20 04:41:48;;;;;;;;;;;15.70;55.20;;;;;;6152072;23;19912;-72
2022/08/20 04:44:15;;;;;;;;;;;15.70;55.60;;;;;;6151689;23;19916;-73
2022/08/20 04:46:42;;;;;;;;;;;15.80;56.00;;;;;;6152747;23;19912;-73
2022/08/20 04:49:08;;;;;;;;;;;15.80;56.70;;;;;;6152893;23;19909;-73
2022/08/20 04:51:35;;;;;;;;;;;15.80;55.70;;;;;;6151432;23;19915;-73
2022/08/20 04:54:02;;;;;;;;;;;15.80;56.10;;;;;;6151558;23;20467;-73
2022/08/20 04:56:30;;;;;;;;;;;15.80;56.30;;;;;;6151741;23;20336;-73
2022/08/20 04:58:58;;;;;;;;;;;15.90;56.70;;;;;;6151222;23;19908;-72
2022/08/20 05:01:25;;;;;;;;;;;15.90;56.30;;;;;;6126372;23;19905;-72
2022/08/20 05:03:53;;;;;;;;;;;15.90;56.10;;;;;;6152896;23;19908;-71
2022/08/20 05:06:20;;;;;;;;;;;15.90;56.50;;;;;;6126995;23;19915;-72
2022/08/20 05:08:47;;;;;;;;;;;16.00;56.60;;;;;;6126657;23;19995;-72
2022/08/20 05:11:13;;;;;;;;;;;16.00;56.60;;;;;;6152898;23;20015;-72
2022/08/20 05:13:41;;;;;;;;;;;16.00;56.30;;;;;;6126314;23;19949;-72
2022/08/20 05:16:08;;;;;;;;;;;16.00;56.30;;;;;;6152578;23;19913;-72
2022/08/20 05:18:35;;;;;;;;;;;16.00;56.40;;;;;;6155793;23;19912;-72
2022/08/20 05:21:05;;;;;;;;;;;15.90;57.30;;;;;;6127197;23;19916;-72
2022/08/20 05:23:35;;;;;;;;;;;15.90;57.60;;;;;;6130296;23;20248;-72
2022/08/20 05:26:06;;;;;;;;;;;16.00;57.20;;;;;;6128482;23;19905;-72
2022/08/20 05:28:33;;;;;;;;;;;15.90;56.50;;;;;;6129246;23;20316;-72
2022/08/20 05:31:00;;;;;;;;;;;16.00;55.80;;;;;;6154661;23;19905;-72
2022/08/20 05:33:27;;;;;;;;;;;16.00;55.30;;;;;;6128530;23;20001;-71
2022/08/20 05:35:53;;;;;;;;;;;16.00;54.90;;;;;;6128419;23;19917;-71
2022/08/20 05:38:21;;;;;;;;;;;16.00;54.70;;;;;;6154296;23;19912;-71
2022/08/20 05:40:47;;;;;;;;;;;16.10;54.90;;;;;;6129009;23;19905;-72
2022/08/20 05:43:14;;;;;;;;;;;16.10;54.70;;;;;;6155371;23;20246;-72
2022/08/20 05:45:41;;;;;;;;;;;16.20;54.80;;;;;;6154195;23;20232;-72
2022/08/20 05:48:12;;;;;;;;;;;16.20;55.20;;;;;;6155205;23;20236;-72
2022/08/20 05:50:39;;;;;;;;;;;16.20;55.50;;;;;;6155626;23;19975;-72
2022/08/20 05:53:05;;;;;;;;;;;16.20;55.10;;;;;;6129370;23;19905;-71
2022/08/20 05:55:32;;;;;;;;;;;16.30;55.40;;;;;;6129580;23;19983;-71
2022/08/20 05:57:59;;;;;;;;;;;16.40;54.40;;;;;;6155824;23;19909;-71
2022/08/20 06:00:26;;;;;;;;;;;16.40;54.50;;;;;;6155253;23;19905;-71
2022/08/20 06:05:37;;;;;;;;;;;16.30;54.70;;;;;;6155566;23;19963;-71
2022/08/20 06:08:07;;;;;;;;;;;16.40;54.70;;;;;;6154653;23;19908;-72
2022/08/20 06:10:34;;;;;;;;;;;16.40;54.70;;;;;;6154997;23;19908;-71
2022/08/20 06:13:01;;;;;;;;;;;16.30;54.40;;;;;;6128360;23;19979;-71
2022/08/20 06:15:28;;;;;;;;;;;16.30;55.00;;;;;;6104811;23;19936;-71
2022/08/20 06:17:55;;;;;;;;;;;16.30;55.10;;;;;;6155513;23;19913;-71
2022/08/20 06:20:22;;;;;;;;;;;16.20;55.10;;;;;;6104329;23;20343;-71
2022/08/20 06:22:48;;;;;;;;;;;16.20;55.20;;;;;;6129059;23;19911;-71
2022/08/20 06:25:15;;;;;;;;;;;16.20;55.20;;;;;;6155060;23;19909;-73
2022/08/20 06:27:42;;;;;;;;;;;16.20;55.50;;;;;;6129588;23;19904;-71
2022/08/20 06:30:10;;;;;;;;;;;16.20;55.50;;;;;;6129242;23;19905;-71
2022/08/20 06:32:37;;;;;;;;;;;16.20;55.50;;;;;;6104409;23;20316;-72
2022/08/20 06:35:04;;;;;;;;;;;16.10;55.80;;;;;;6129459;23;19940;-71
2022/08/20 06:37:31;;;;;;;;;;;16.00;55.90;;;;;;6129301;23;19913;-71
2022/08/20 06:40:05;;;;;;;;;;;16.10;56.10;;;;;;6129445;23;19987;-71
2022/08/20 06:42:32;;;;;;;;;;;16.00;56.10;;;;;;6129830;23;19915;-71
2022/08/20 06:44:59;;;;;;;;;;;16.00;56.20;;;;;;6129764;23;19943;-71
2022/08/20 06:47:25;;;;;;;;;;;16.00;56.50;;;;;;6155705;23;19913;-73
2022/08/20 06:49:52;;;;;;;;;;;16.00;56.50;;;;;;6155184;23;19909;-73
2022/08/20 06:52:19;;;;;;;;;;;16.00;56.60;;;;;;6155470;23;20019;-71
2022/08/20 06:54:45;;;;;;;;;;;15.90;56.80;;;;;;6155077;23;20346;-71
2022/08/20 06:57:12;;;;;;;;;;;15.90;57.00;;;;;;6154210;23;19912;-71
2022/08/20 06:59:38;;;;;;;;;;;15.90;57.20;;;;;;6155333;23;19905;-71
2022/08/20 07:02:05;;;;;;;;;;;15.80;57.20;;;;;;6155281;23;19931;-73
2022/08/20 18:04:45;;;;;;;;;;;13.00;69.60;;;;;;6151120;23;19924;-72
2022/08/20 18:07:23;;;;;;;;;;;13.00;69.30;;;;;;6104948;23;19940;-72
2022/08/20 18:10:09;;;;;;;;;;;13.00;68.30;;;;;;6155054;23;19904;-71
2022/08/20 18:12:38;;;;;;;;;;;12.90;68.90;;;;;;6129712;23;20220;-71
2022/08/20 18:15:22;;;;;;;;;;;12.90;68.90;;;;;;6105170;23;19909;-71
2022/08/20 18:18:01;;;;;;;;;;;13.00;68.90;;;;;;6129925;23;19913;-71
2022/08/20 18:20:46;;;;;;;;;;;12.90;68.80;;;;;;6129687;23;20288;-71
2022/08/20 18:23:17;;;;;;;;;;;12.90;68.70;;;;;;6155773;23;19912;-71
2022/08/20 18:25:44;;;;;;;;;;;12.90;68.90;;;;;;6105163;23;19905;-71
2022/08/20 18:28:15;;;;;;;;;;;12.90;68.70;;;;;;6155961;23;19905;-71
2022/08/20 18:30:55;;;;;;;;;;;12.90;68.50;;;;;;6155896;23;19908;-71
2022/08/20 18:33:44;;;;;;;;;;;12.90;68.50;;;;;;6129515;23;19905;-71
2022/08/20 18:36:11;;;;;;;;;;;12.90;68.60;;;;;;6130277;23;19967;-71
2022/08/20 18:38:40;;;;;;;;;;;12.90;68.60;;;;;;6155138;23;20292;-72
2022/08/20 18:41:27;;;;;;;;;;;12.90;68.40;;;;;;6129270;23;19909;-72
2022/08/20 18:44:04;;;;;;;;;;;12.90;68.50;;;;;;6155110;23;19983;-71
2022/08/20 18:46:30;;;;;;;;;;;12.80;68.30;;;;;;6155475;23;20252;-72
2022/08/20 18:48:58;;;;;;;;;;;12.90;68.10;;;;;;6129880;23;19912;-71
2022/08/20 18:51:29;;;;;;;;;;;12.90;68.20;;;;;;6129428;23;19943;-71
2022/08/20 18:53:56;;;;;;;;;;;12.90;68.20;;;;;;6129201;23;19912;-72
2022/08/20 18:56:39;;;;;;;;;;;12.90;68.10;;;;;;6128873;23;19919;-71
2022/08/20 18:59:07;;;;;;;;;;;12.90;68.30;;;;;;6129552;23;20316;-71
2022/08/20 19:01:34;;;;;;;;;;;12.80;67.90;;;;;;6129184;23;19940;-71
2022/08/20 19:04:01;;;;;;;;;;;12.80;67.70;;;;;;6129483;23;19992;-71
2022/08/20 19:06:43;;;;;;;;;;;12.80;67.70;;;;;;6129490;23;20287;-71
2022/08/20 19:09:13;;;;;;;;;;;12.80;67.80;;;;;;6155487;23;19963;-71
2022/08/20 19:11:55;;;;;;;;;;;12.80;67.80;;;;;;6155086;23;19905;-71
2022/08/20 19:14:32;;;;;;;;;;;12.80;68.10;;;;;;6155079;23;19909;-71
2022/08/20 19:17:16;;;;;;;;;;;12.80;67.60;;;;;;6155226;23;20240;-71
2022/08/20 19:19:43;;;;;;;;;;;12.80;67.50;;;;;;6155330;23;19939;-71
2022/08/20 19:22:10;;;;;;;;;;;12.80;67.20;;;;;;6129145;23;19915;-71
2022/08/20 19:24:40;;;;;;;;;;;12.80;67.20;;;;;;6129013;23;19904;-71
2022/08/20 19:27:07;;;;;;;;;;;12.80;67.30;;;;;;6105402;23;20253;-72
2022/08/20 19:29:39;;;;;;;;;;;12.80;67.20;;;;;;6155543;23;19911;-71
2022/08/20 19:32:06;;;;;;;;;;;12.80;67.00;;;;;;6104657;23;19940;-71
2022/08/20 19:34:33;;;;;;;;;;;12.80;67.10;;;;;;6129336;23;19971;-71
2022/08/20 19:37:10;;;;;;;;;;;12.80;66.70;;;;;;6104466;23;19919;-71
2022/08/20 19:39:36;;;;;;;;;;;12.80;66.70;;;;;;6129237;23;19905;-72
2022/08/20 19:42:12;;;;;;;;;;;12.70;67.00;;;;;;6129142;23;19912;-71
2022/08/20 19:44:55;;;;;;;;;;;12.70;67.10;;;;;;6128707;23;19916;-71
2022/08/20 19:47:25;;;;;;;;;;;12.70;66.80;;;;;;6129083;23;20320;-72
2022/08/20 19:49:56;;;;;;;;;;;12.70;66.80;;;;;;6129026;23;20117;-71
2022/08/20 19:52:32;;;;;;;;;;;12.70;66.30;;;;;;6154998;23;19908;-72
2022/08/20 19:54:58;;;;;;;;;;;12.70;66.30;;;;;;6154719;23;19911;-71
2022/08/20 19:57:25;;;;;;;;;;;12.70;66.40;;;;;;6154792;23;19913;-71
2022/08/20 19:59:53;;;;;;;;;;;12.70;66.20;;;;;;6155055;23;20225;-71
2022/08/20 20:02:20;;;;;;;;;;;12.70;66.10;;;;;;6129146;23;20372;-71
2022/08/20 20:04:46;;;;;;;;;;;12.70;66.10;;;;;;6154361;23;19917;-71
2022/08/20 20:07:18;;;;;;;;;;;12.60;65.90;;;;;;6154911;23;19908;-71
2022/08/20 20:09:45;;;;;;;;;;;12.70;66.10;;;;;;6128345;23;20348;-72
2022/08/20 20:12:12;;;;;;;;;;;12.60;66.00;;;;;;6128986;23;19986;-71
2022/08/20 20:14:39;;;;;;;;;;;12.60;65.70;;;;;;6128766;23;19909;-71
2022/08/20 20:17:09;;;;;;;;;;;12.70;65.80;;;;;;6154727;23;19916;-71
2022/08/20 20:19:55;;;;;;;;;;;12.60;65.50;;;;;;6154742;23;19975;-71
2022/08/20 20:22:32;;;;;;;;;;;12.60;65.50;;;;;;6154950;23;19908;-71
2022/08/20 20:25:17;;;;;;;;;;;12.60;65.60;;;;;;6154685;23;19932;-71
2022/08/20 20:27:50;;;;;;;;;;;12.60;66.10;;;;;;6128724;23;19924;-71
2022/08/20 20:30:25;;;;;;;;;;;12.60;65.60;;;;;;6128864;23;19904;-71
2022/08/20 20:32:52;;;;;;;;;;;12.50;65.10;;;;;;6129455;23;19905;-71
2022/08/20 20:35:29;;;;;;;;;;;12.60;65.20;;;;;;6154268;23;19936;-71
2022/08/20 20:37:57;;;;;;;;;;;12.60;65.20;;;;;;6103986;23;19995;-71
2022/08/20 20:40:25;;;;;;;;;;;12.50;64.90;;;;;;6128811;23;19904;-71
2022/08/20 20:42:59;;;;;;;;;;;12.60;64.70;;;;;;6128910;23;19911;-71
2022/08/20 20:45:36;;;;;;;;;;;12.50;65.00;;;;;;6128588;23;19905;-72
2022/08/20 20:48:14;;;;;;;;;;;12.50;65.10;;;;;;6128911;23;19920;-71
2022/08/20 20:50:41;;;;;;;;;;;12.50;65.10;;;;;;6128788;23;19921;-72
2022/08/20 20:53:07;;;;;;;;;;;12.60;65.20;;;;;;6155322;23;19981;-71
2022/08/20 20:55:35;;;;;;;;;;;12.60;65.00;;;;;;6128804;23;19909;-71
2022/08/20 20:58:01;;;;;;;;;;;12.60;65.20;;;;;;6154343;23;19912;-71
2022/08/20 21:00:29;;;;;;;;;;;12.50;65.50;;;;;;6128502;23;19991;-71
2022/08/20 21:02:55;;;;;;;;;;;12.50;65.60;;;;;;6129087;23;19919;-71
2022/08/20 21:05:23;;;;;;;;;;;12.50;65.50;;;;;;6154573;23;19917;-71
2022/08/20 21:07:51;;;;;;;;;;;12.50;65.50;;;;;;6128850;23;19908;-71
2022/08/20 21:10:18;;;;;;;;;;;12.50;65.40;;;;;;6128836;23;19911;-71
2022/08/20 21:12:45;;;;;;;;;;;12.50;65.70;;;;;;6128599;23;19904;-72
2022/08/20 21:15:11;;;;;;;;;;;12.60;65.70;;;;;;6154961;23;20217;-71
2022/08/20 21:17:38;;;;;;;;;;;12.50;65.60;;;;;;6129645;23;19913;-71
2022/08/20 21:20:06;;;;;;;;;;;12.60;66.00;;;;;;6130362;23;19909;-71
2022/08/20 21:22:32;;;;;;;;;;;12.60;66.00;;;;;;6129220;23;19915;-71
2022/08/20 21:24:59;;;;;;;;;;;12.60;66.80;;;;;;6156247;23;19909;-72
2022/08/20 21:27:26;;;;;;;;;;;12.70;66.20;;;;;;6156230;23;19979;-71
2022/08/20 21:29:52;;;;;;;;;;;12.70;66.10;;;;;;6130513;23;19991;-72
2022/08/20 21:32:19;;;;;;;;;;;12.70;65.60;;;;;;6130287;23;20244;-72
2022/08/20 21:34:46;;;;;;;;;;;12.70;65.30;;;;;;6156360;23;19987;-72
2022/08/20 21:37:13;;;;;;;;;;;12.70;66.30;;;;;;6130114;23;19912;-71
2022/08/20 21:39:40;;;;;;;;;;;12.70;65.60;;;;;;6130003;23;19905;-72
2022/08/20 21:42:09;;;;;;;;;;;12.70;65.60;;;;;;6130196;23;19904;-72
2022/08/20 21:44:35;;;;;;;;;;;12.70;65.80;;;;;;6130565;23;19959;-72
2022/08/20 21:47:02;;;;;;;;;;;12.80;65.80;;;;;;6156403;23;19916;-72
2022/08/20 21:49:29;;;;;;;;;;;12.80;65.30;;;;;;6155667;23;19908;-72
2022/08/20 21:51:55;;;;;;;;;;;12.80;65.20;;;;;;6130247;23;19992;-72
2022/08/20 21:54:23;;;;;;;;;;;12.80;64.70;;;;;;6130004;23;19904;-71
2022/08/20 21:56:50;;;;;;;;;;;12.90;64.30;;;;;;6130122;23;19940;-72
2022/08/20 21:59:17;;;;;;;;;;;12.90;64.50;;;;;;6129848;23;19928;-72
2022/08/20 22:01:44;;;;;;;;;;;13.00;64.40;;;;;;6129991;23;19904;-72
2022/08/20 22:04:10;;;;;;;;;;;13.00;64.00;;;;;;6155617;23;19940;-72
2022/08/20 22:06:37;;;;;;;;;;;13.00;64.00;;;;;;6155784;23;19912;-72
2022/08/20 22:09:04;;;;;;;;;;;13.00;63.90;;;;;;6155761;23;19951;-72
2022/08/20 22:11:31;;;;;;;;;;;13.00;63.60;;;;;;6129094;23;19911;-72
2022/08/20 22:13:58;;;;;;;;;;;12.90;64.00;;;;;;6130148;23;19928;-71
2022/08/20 22:16:25;;;;;;;;;;;12.90;64.20;;;;;;6129798;23;19908;-71
2022/08/20 22:18:51;;;;;;;;;;;12.80;64.90;;;;;;6155352;23;19932;-72
2022/08/20 22:21:22;;;;;;;;;;;12.80;64.30;;;;;;6155382;23;19947;-72
2022/08/20 22:23:49;;;;;;;;;;;12.90;64.40;;;;;;6155402;23;19927;-72
2022/08/20 22:26:16;;;;;;;;;;;12.90;64.80;;;;;;6155695;23;19911;-72
2022/08/20 22:28:42;;;;;;;;;;;12.90;64.80;;;;;;6129666;23;19911;-72
2022/08/20 22:31:09;;;;;;;;;;;13.00;64.60;;;;;;6155834;23;20309;-72
2022/08/20 22:33:36;;;;;;;;;;;13.10;65.10;;;;;;6155464;23;19988;-72
2022/08/20 22:36:02;;;;;;;;;;;13.00;64.80;;;;;;6155026;23;19967;-72
2022/08/20 22:38:29;;;;;;;;;;;13.10;64.80;;;;;;6129331;23;19912;-72
2022/08/20 22:40:56;;;;;;;;;;;13.20;65.00;;;;;;6155516;23;19904;-72
2022/08/20 22:43:22;;;;;;;;;;;13.20;65.10;;;;;;6155757;23;19936;-72
2022/08/20 22:45:49;;;;;;;;;;;13.20;64.50;;;;;;6155518;23;19940;-72
2022/08/20 22:48:16;;;;;;;;;;;13.20;64.40;;;;;;6129650;23;20232;-72
2022/08/20 22:50:43;;;;;;;;;;;13.20;63.90;;;;;;6155422;23;19992;-71
2022/08/20 22:53:10;;;;;;;;;;;13.20;63.90;;;;;;6155273;23;20355;-71
2022/08/20 22:55:37;;;;;;;;;;;13.20;64.10;;;;;;6155226;23;19906;-72
2022/08/20 22:58:04;;;;;;;;;;;13.20;64.00;;;;;;6155383;23;19935;-72
2022/08/20 23:00:30;;;;;;;;;;;13.20;63.90;;;;;;6154872;23;19905;-72
2022/08/20 23:02:57;;;;;;;;;;;13.20;64.00;;;;;;6155439;23;20239;-72
2022/08/20 23:05:25;;;;;;;;;;;13.20;64.50;;;;;;6128907;23;20311;-71
2022/08/20 23:07:51;;;;;;;;;;;13.30;64.00;;;;;;6129347;23;19955;-71
2022/08/20 23:10:18;;;;;;;;;;;13.30;64.00;;;;;;6155719;23;19909;-71
2022/08/20 23:12:44;;;;;;;;;;;13.30;64.00;;;;;;6154926;23;19971;-72
2022/08/20 23:15:11;;;;;;;;;;;13.30;64.10;;;;;;6154582;23;19905;-71
2022/08/20 23:17:38;;;;;;;;;;;13.30;64.10;;;;;;6154673;23;19933;-72
2022/08/20 23:20:08;;;;;;;;;;;13.40;63.80;;;;;;6155069;23;19950;-71
2022/08/20 23:22:35;;;;;;;;;;;13.40;63.90;;;;;;6154691;23;19909;-72
2022/08/20 23:25:01;;;;;;;;;;;13.40;64.10;;;;;;6154624;23;19963;-71
2022/08/20 23:27:28;;;;;;;;;;;13.40;63.80;;;;;;6154867;23;19904;-71
2022/08/20 23:29:55;;;;;;;;;;;13.50;64.20;;;;;;6154983;23;20379;-71
2022/08/20 23:32:21;;;;;;;;;;;13.50;64.60;;;;;;6154797;23;19912;-71
2022/08/20 23:34:48;;;;;;;;;;;13.50;63.10;;;;;;6155113;23;19909;-72
2022/08/20 23:37:17;;;;;;;;;;;13.50;63.80;;;;;;6154660;23;19917;-72
2022/08/20 23:39:45;;;;;;;;;;;13.60;63.20;;;;;;6154553;23;19932;-72
2022/08/20 23:42:12;;;;;;;;;;;13.60;64.30;;;;;;6155166;23;19913;-71
2022/08/20 23:44:39;;;;;;;;;;;13.70;63.70;;;;;;6155093;23;19908;-72
2022/08/20 23:47:05;;;;;;;;;;;13.70;63.80;;;;;;6154625;23;19932;-72
2022/08/20 23:49:32;;;;;;;;;;;13.70;63.60;;;;;;6154388;23;19911;-72
2022/08/20 23:51:59;;;;;;;;;;;13.70;63.40;;;;;;6154762;23;19931;-72
2022/08/20 23:54:29;;;;;;;;;;;13.80;64.00;;;;;;6154892;23;20320;-72
2022/08/20 23:56:56;;;;;;;;;;;13.80;63.80;;;;;;6154358;23;19935;-72
2022/08/20 23:59:22;;;;;;;;;;;13.80;64.00;;;;;;6154315;23;19904;-72
